createdAt,value
2019-01-28T00:00:13.521Z,66.40
2019-01-28T00:02:43.373Z,66.30
2019-01-28T00:05:12.459Z,66.20
2019-01-28T00:07:41.449Z,66.40
2019-01-28T00:10:10.845Z,66.80
2019-01-28T00:12:39.910Z,66.30
2019-01-28T00:15:09.146Z,66.30
2019-01-28T00:17:38.971Z,66.80
2019-01-28T00:20:08.255Z,66.10
2019-01-28T00:22:37.347Z,66.40
2019-01-28T00:25:09.025Z,65.50
2019-01-28T00:27:38.293Z,65.30
2019-01-28T00:30:07.921Z,64.90
2019-01-28T00:32:38.482Z,64.30
2019-01-28T00:35:07.914Z,64.10
2019-01-28T00:37:37.428Z,64.40
2019-01-28T00:40:10.092Z,64.20
2019-01-28T00:42:39.219Z,64.10
2019-01-28T00:45:11.963Z,64.00
2019-01-28T00:47:41.047Z,64.10
2019-01-28T00:50:10.764Z,64.00
2019-01-28T00:52:40.032Z,64.60
2019-01-28T00:55:10.741Z,63.90
2019-01-28T00:57:42.992Z,64.90
2019-01-28T01:00:15.314Z,65.20
2019-01-28T01:02:45.955Z,65.60
2019-01-28T01:05:15.175Z,65.80
2019-01-28T01:07:44.158Z,66.10
2019-01-28T01:10:13.466Z,66.10
2019-01-28T01:12:42.620Z,66.20
2019-01-28T01:15:13.642Z,65.90
2019-01-28T01:17:42.833Z,65.80
2019-01-28T01:20:13.929Z,66.90
2019-01-28T01:22:43.133Z,66.90
2019-01-28T01:25:12.735Z,67.40
2019-01-28T01:27:42.245Z,67.60
2019-01-28T01:30:14.323Z,67.90
2019-01-28T01:32:43.626Z,68.30
2019-01-28T01:35:13.228Z,68.20
2019-01-28T01:37:42.579Z,68.00
2019-01-28T01:40:13.918Z,68.30
2019-01-28T01:42:43.522Z,68.10
2019-01-28T01:45:14.417Z,68.80
2019-01-28T01:47:43.551Z,68.70
2019-01-28T01:50:14.171Z,68.20
2019-01-28T01:52:43.748Z,67.70
2019-01-28T01:55:15.060Z,68.10
2019-01-28T01:57:44.911Z,68.10
2019-01-28T02:00:16.857Z,68.10
2019-01-28T02:02:46.776Z,67.80
2019-01-28T02:05:16.773Z,68.60
2019-01-28T02:07:46.274Z,68.30
2019-01-28T02:10:17.892Z,69.10
2019-01-28T02:12:47.360Z,69.10
2019-01-28T02:15:19.941Z,68.90
2019-01-28T02:17:50.074Z,70.20
2019-01-28T02:20:20.163Z,70.30
2019-01-28T02:22:50.755Z,70.80
2019-01-28T02:25:21.023Z,71.90
2019-01-28T02:27:51.657Z,72.70
2019-01-28T02:30:21.707Z,73.60
2019-01-28T02:32:53.201Z,74.50
2019-01-28T02:35:25.551Z,75.40
2019-01-28T02:37:55.459Z,74.90
2019-01-28T02:40:25.833Z,75.90
2019-01-28T02:42:57.703Z,76.50
2019-01-28T02:45:27.914Z,77.90
2019-01-28T02:47:58.687Z,79.00
2019-01-28T02:50:30.380Z,81.80
2019-01-28T02:53:01.164Z,81.70
2019-01-28T02:55:30.941Z,82.10
2019-01-28T02:58:00.870Z,83.30
2019-01-28T03:00:31.306Z,84.40
2019-01-28T03:03:01.190Z,85.20
2019-01-28T03:05:31.693Z,87.40
2019-01-28T03:08:05.116Z,88.40
2019-01-28T03:10:36.134Z,91.40
2019-01-28T03:13:06.383Z,92.20
2019-01-28T03:15:36.204Z,93.40
2019-01-28T03:18:06.888Z,95.10
2019-01-28T03:20:37.361Z,96.90
2019-01-28T03:23:11.097Z,98.70
2019-01-28T03:25:40.557Z,99.60
2019-01-28T03:28:11.342Z,99.90
2019-01-28T03:30:41.383Z,99.90
2019-01-28T03:33:11.980Z,99.90
2019-01-28T03:35:42.315Z,99.90
2019-01-28T03:38:12.895Z,99.90
2019-01-28T03:40:44.123Z,99.90
2019-01-28T03:43:16.887Z,99.90
2019-01-28T03:45:47.201Z,99.90
2019-01-28T03:48:18.163Z,99.90
2019-01-28T03:50:47.927Z,99.90
2019-01-28T03:53:18.143Z,99.90
2019-01-28T03:55:48.233Z,99.90
2019-01-28T03:58:18.822Z,99.90
2019-01-28T04:00:48.989Z,99.90
2019-01-28T04:03:18.938Z,99.90
2019-01-28T04:05:48.891Z,99.90
2019-01-28T04:08:22.130Z,99.90
2019-01-28T04:10:52.270Z,99.90
2019-01-28T04:13:22.086Z,99.90
2019-01-28T04:15:51.958Z,99.90
2019-01-28T04:18:24.001Z,99.90
2019-01-28T04:20:53.280Z,99.90
2019-01-28T04:23:24.315Z,99.90
2019-01-28T04:25:54.260Z,99.90
2019-01-28T04:28:27.263Z,99.90
2019-01-28T04:30:57.718Z,99.90
2019-01-28T04:33:27.840Z,99.90
2019-01-28T04:35:58.495Z,99.90
2019-01-28T04:38:28.926Z,99.90
2019-01-28T04:41:00.459Z,99.90
2019-01-28T04:43:30.433Z,99.90
2019-01-28T04:46:02.596Z,99.90
2019-01-28T04:48:32.644Z,99.90
2019-01-28T04:51:02.228Z,99.90
2019-01-28T04:53:32.969Z,99.90
2019-01-28T04:56:03.155Z,99.90
2019-01-28T04:58:33.485Z,99.90
2019-01-28T05:01:04.088Z,99.40
2019-01-28T05:03:33.728Z,98.40
2019-01-28T05:06:03.950Z,98.30
2019-01-28T05:08:34.620Z,99.10
2019-01-28T05:11:05.834Z,98.30
2019-01-28T05:13:35.936Z,98.40
2019-01-28T05:16:07.671Z,98.60
2019-01-28T05:18:38.048Z,98.10
2019-01-28T05:21:11.058Z,97.00
2019-01-28T05:23:41.301Z,96.80
2019-01-28T05:26:16.769Z,97.50
2019-01-28T05:29:24.098Z,97.40
2019-01-28T05:31:51.828Z,98.20
2019-01-28T05:34:36.179Z,98.40
2019-01-28T05:37:45.825Z,97.50
2019-01-28T05:40:18.056Z,97.00
2019-01-28T05:43:16.654Z,96.60
2019-01-28T05:45:53.820Z,95.70
2019-01-28T05:49:07.902Z,96.10
2019-01-28T05:51:40.468Z,95.30
2019-01-28T05:54:38.619Z,94.80
2019-01-28T05:57:16.699Z,94.70
2019-01-28T06:00:44.232Z,94.80
2019-01-28T06:02:54.720Z,95.40
2019-01-28T06:05:32.024Z,95.40
2019-01-28T06:08:10.568Z,94.80
2019-01-28T06:10:56.456Z,93.40
2019-01-28T06:13:36.494Z,93.50
2019-01-28T06:16:34.323Z,93.60
2019-01-28T06:19:19.954Z,93.40
2019-01-28T06:21:49.400Z,93.40
2019-01-28T06:24:18.957Z,93.20
2019-01-28T06:26:49.407Z,93.50
2019-01-28T06:29:18.737Z,93.20
2019-01-28T06:31:49.059Z,92.90
2019-01-28T06:34:19.990Z,92.50
2019-01-28T06:37:05.592Z,91.90
2019-01-28T06:39:38.497Z,91.60
2019-01-28T06:42:07.716Z,92.50
2019-01-28T06:44:37.110Z,90.70
2019-01-28T06:47:06.442Z,89.70
2019-01-28T06:49:35.761Z,89.40
2019-01-28T06:52:05.199Z,88.70
2019-01-28T06:54:34.295Z,88.90
2019-01-28T06:57:03.582Z,88.60
2019-01-28T06:59:33.138Z,89.00
2019-01-28T07:02:02.617Z,89.60
2019-01-28T07:04:31.840Z,88.30
2019-01-28T07:07:03.463Z,88.70
2019-01-28T07:09:36.323Z,89.50
2019-01-28T07:12:05.531Z,90.30
2019-01-28T07:14:34.584Z,90.60
2019-01-28T07:17:03.648Z,88.00
2019-01-28T07:19:32.644Z,86.50
2019-01-28T07:22:01.602Z,84.60
2019-01-28T07:24:30.578Z,84.40
2019-01-28T07:26:59.453Z,82.60
2019-01-28T07:29:28.425Z,82.60
2019-01-28T07:31:57.351Z,79.50
2019-01-28T07:34:26.427Z,78.70
2019-01-28T07:36:55.376Z,78.80
2019-01-28T07:39:24.417Z,76.40
2019-01-28T07:41:53.444Z,74.40
2019-01-28T07:44:22.679Z,74.10
2019-01-28T07:46:51.925Z,75.70
2019-01-28T07:49:20.940Z,75.10
2019-01-28T07:51:53.740Z,73.70
2019-01-28T07:54:22.730Z,71.90
2019-01-28T07:56:52.437Z,70.60
2019-01-28T07:59:21.549Z,71.30
2019-01-28T08:01:51.696Z,66.50
2019-01-28T08:04:20.889Z,65.20
2019-01-28T08:06:59.199Z,65.30
2019-01-28T08:09:20.668Z,63.50
2019-01-28T08:11:50.022Z,62.90
2019-01-28T08:14:20.882Z,58.90
2019-01-28T08:16:49.951Z,61.80
2019-01-28T08:19:19.040Z,60.70
2019-01-28T08:21:48.027Z,59.20
2019-01-28T08:24:16.932Z,57.50
2019-01-28T08:26:45.866Z,56.20
2019-01-28T08:29:14.880Z,55.70
2019-01-28T08:31:43.782Z,57.80
2019-01-28T08:34:12.788Z,56.70
2019-01-28T08:36:45.376Z,55.50
2019-01-28T08:39:14.665Z,55.10
2019-01-28T08:41:43.706Z,55.20
2019-01-28T08:44:12.633Z,55.60
2019-01-28T08:46:41.842Z,53.90
2019-01-28T08:49:10.813Z,51.50
2019-01-28T08:51:40.312Z,54.20
2019-01-28T08:54:09.481Z,52.80
2019-01-28T08:56:38.616Z,52.90
2019-01-28T08:59:07.802Z,53.40
2019-01-28T09:01:38.686Z,50.80
2019-01-28T09:04:10.551Z,48.50
2019-01-28T09:06:39.901Z,48.10
2019-01-28T09:09:10.660Z,44.30
2019-01-28T09:11:39.828Z,45.50
2019-01-28T09:14:09.063Z,45.20
2019-01-28T09:16:38.256Z,45.70
2019-01-28T09:19:07.338Z,42.50
2019-01-28T09:21:36.469Z,38.80
2019-01-28T09:24:05.530Z,35.20
2019-01-28T09:26:34.525Z,31.10
2019-01-28T09:29:05.830Z,31.60
2019-01-28T09:31:36.058Z,25.10
2019-01-28T09:34:05.274Z,20.00
2019-01-28T09:36:34.518Z,16.80
2019-01-28T09:39:05.795Z,16.50
2019-01-28T09:41:35.714Z,14.10
2019-01-28T09:44:05.436Z,14.40
2019-01-28T09:46:34.970Z,14.30
2019-01-28T09:49:03.973Z,15.10
2019-01-28T09:51:33.288Z,12.30
2019-01-28T09:54:02.457Z,11.40
2019-01-28T09:56:33.099Z,10.50
2019-01-28T09:59:02.080Z,10.70
2019-01-28T10:01:31.269Z,13.40
2019-01-28T10:04:00.639Z,13.90
2019-01-28T10:06:29.632Z,11.00
2019-01-28T10:08:58.744Z,10.00
2019-01-28T10:11:27.826Z,6.00
2019-01-28T10:13:56.818Z,6.00
2019-01-28T10:16:25.895Z,7.60
2019-01-28T10:18:54.879Z,4.50
2019-01-28T10:21:24.040Z,4.10
2019-01-28T10:23:53.126Z,3.20
2019-01-28T10:26:22.309Z,3.60
2019-01-28T10:28:52.669Z,2.90
2019-01-28T10:31:22.496Z,2.60
2019-01-28T10:33:51.719Z,3.60
2019-01-28T10:36:22.709Z,5.50
2019-01-28T10:38:52.126Z,7.50
2019-01-28T10:41:21.212Z,7.90
2019-01-28T10:43:50.182Z,7.10
2019-01-28T10:46:19.549Z,6.90
2019-01-28T10:48:49.719Z,6.40
2019-01-28T10:51:18.940Z,8.10
2019-01-28T10:53:47.890Z,8.60
2019-01-28T10:56:17.075Z,9.80
2019-01-28T10:58:46.116Z,10.10
2019-01-28T11:01:15.116Z,11.40
2019-01-28T11:03:44.424Z,12.90
2019-01-28T11:06:13.484Z,13.00
2019-01-28T11:08:42.665Z,13.50
2019-01-28T11:11:11.985Z,15.10
2019-01-28T11:13:40.965Z,15.00
2019-01-28T11:16:10.180Z,15.60
2019-01-28T11:18:39.450Z,15.20
2019-01-28T11:21:08.739Z,16.00
2019-01-28T11:23:37.951Z,16.90
2019-01-28T11:26:07.152Z,16.50
2019-01-28T11:28:36.735Z,17.40
2019-01-28T11:31:12.721Z,18.20
2019-01-28T11:33:42.007Z,16.80
2019-01-28T11:36:11.845Z,17.10
2019-01-28T11:38:41.045Z,16.80
2019-01-28T11:41:10.115Z,16.40
2019-01-28T11:43:39.103Z,14.60
2019-01-28T11:46:08.662Z,15.50
2019-01-28T11:48:38.133Z,15.40
2019-01-28T11:51:07.267Z,14.70
2019-01-28T11:53:36.367Z,13.20
2019-01-28T11:56:05.797Z,12.10
2019-01-28T11:58:34.773Z,12.40
2019-01-28T12:01:12.207Z,13.20
2019-01-28T12:03:41.251Z,13.20
2019-01-28T12:06:10.309Z,13.90
2019-01-28T12:08:39.289Z,14.20
2019-01-28T12:11:08.520Z,14.30
2019-01-28T12:13:37.843Z,15.60
2019-01-28T12:16:07.039Z,15.20
2019-01-28T12:18:36.314Z,15.70
2019-01-28T12:21:05.978Z,14.60
2019-01-28T12:23:35.208Z,15.00
2019-01-28T12:26:04.456Z,16.20
2019-01-28T12:28:33.792Z,14.40
2019-01-28T12:31:03.276Z,15.70
2019-01-28T12:33:35.187Z,14.40
2019-01-28T12:36:04.353Z,15.70
2019-01-28T12:38:33.413Z,13.80
2019-01-28T12:41:02.540Z,14.30
2019-01-28T12:43:31.529Z,14.10
2019-01-28T12:46:00.820Z,13.70
2019-01-28T12:48:29.986Z,14.00
2019-01-28T12:50:59.245Z,14.60
2019-01-28T12:53:28.544Z,13.80
2019-01-28T12:55:57.923Z,13.80
2019-01-28T12:58:26.934Z,13.60
2019-01-28T13:01:02.572Z,13.10
2019-01-28T13:03:32.554Z,14.60
2019-01-28T13:06:02.191Z,15.30
2019-01-28T13:08:33.876Z,13.00
2019-01-28T13:11:02.901Z,12.70
2019-01-28T13:13:32.129Z,12.90
2019-01-28T13:16:01.284Z,12.40
2019-01-28T13:18:30.369Z,11.20
2019-01-28T13:21:00.067Z,11.30
2019-01-28T13:23:29.252Z,11.20
2019-01-28T13:25:58.512Z,12.00
2019-01-28T13:28:27.874Z,12.50
2019-01-28T13:30:56.859Z,10.10
2019-01-28T13:33:25.948Z,9.30
2019-01-28T13:35:55.151Z,10.30
2019-01-28T13:38:24.263Z,10.50
2019-01-28T13:40:53.589Z,11.10
2019-01-28T13:43:22.711Z,11.00
2019-01-28T13:45:51.655Z,11.50
2019-01-28T13:48:20.657Z,11.40
2019-01-28T13:50:49.953Z,11.90
2019-01-28T13:53:18.904Z,11.10
2019-01-28T13:55:48.019Z,12.00
2019-01-28T13:58:17.115Z,11.90
2019-01-28T14:00:46.130Z,12.80
2019-01-28T14:03:15.263Z,12.50
2019-01-28T14:05:44.662Z,12.50
2019-01-28T14:08:13.767Z,12.90
2019-01-28T14:10:43.047Z,13.40
2019-01-28T14:13:12.233Z,13.20
2019-01-28T14:15:41.524Z,13.80
2019-01-28T14:18:12.131Z,14.70
2019-01-28T14:20:42.098Z,13.60
2019-01-28T14:23:11.848Z,14.50
2019-01-28T14:25:41.121Z,14.70
2019-01-28T14:28:11.548Z,15.00
2019-01-28T14:30:48.363Z,14.90
2019-01-28T14:33:17.268Z,14.60
2019-01-28T14:35:46.545Z,15.70
2019-01-28T14:38:23.338Z,15.40
2019-01-28T14:40:52.718Z,15.40
2019-01-28T14:43:21.787Z,16.20
2019-01-28T14:45:50.811Z,17.00
2019-01-28T14:48:20.073Z,17.10
2019-01-28T14:50:49.452Z,18.10
2019-01-28T14:53:28.385Z,17.70
2019-01-28T14:55:57.994Z,18.30
2019-01-28T14:58:27.296Z,18.50
2019-01-28T15:00:56.572Z,18.80
2019-01-28T15:03:25.593Z,19.30
2019-01-28T15:05:54.685Z,19.30
2019-01-28T15:08:24.047Z,19.20
2019-01-28T15:10:53.384Z,19.80
2019-01-28T15:13:22.565Z,20.00
2019-01-28T15:15:52.155Z,20.20
2019-01-28T15:18:21.791Z,19.70
2019-01-28T15:20:51.258Z,20.50
2019-01-28T15:23:20.781Z,20.60
2019-01-28T15:25:50.343Z,20.30
2019-01-28T15:28:19.639Z,21.10
2019-01-28T15:30:49.002Z,22.00
2019-01-28T15:33:18.071Z,22.60
2019-01-28T15:35:47.572Z,22.80
2019-01-28T15:38:17.306Z,23.10
2019-01-28T15:40:46.870Z,23.50
2019-01-28T15:43:18.800Z,23.70
2019-01-28T15:45:48.343Z,24.20
2019-01-28T15:48:17.750Z,24.60
2019-01-28T15:50:46.967Z,25.20
2019-01-28T15:53:16.230Z,26.30
2019-01-28T15:55:45.315Z,26.00
2019-01-28T15:58:15.272Z,26.90
2019-01-28T16:00:45.623Z,26.90
2019-01-28T16:03:15.206Z,27.10
2019-01-28T16:05:44.278Z,27.90
2019-01-28T16:08:13.469Z,28.20
2019-01-28T16:10:42.618Z,27.70
2019-01-28T16:13:11.816Z,28.00
2019-01-28T16:15:46.033Z,28.70
2019-01-28T16:18:16.129Z,30.10
2019-01-28T16:20:45.249Z,30.40
2019-01-28T16:23:16.126Z,30.50
2019-01-28T16:25:45.662Z,30.60
2019-01-28T16:28:14.972Z,31.10
2019-01-28T16:30:44.306Z,31.50
2019-01-28T16:33:13.950Z,31.80
2019-01-28T16:35:47.138Z,31.70
2019-01-28T16:38:17.961Z,31.20
2019-01-28T16:40:47.102Z,31.60
2019-01-28T16:43:19.226Z,31.20
2019-01-28T16:45:50.100Z,31.30
2019-01-28T16:48:19.981Z,32.50
2019-01-28T16:50:52.515Z,33.00
2019-01-28T16:53:24.732Z,32.80
2019-01-28T16:55:54.278Z,31.70
2019-01-28T16:58:23.592Z,31.50
2019-01-28T17:00:53.157Z,31.50
2019-01-28T17:03:22.473Z,32.60
2019-01-28T17:05:51.970Z,33.20
2019-01-28T17:08:21.239Z,31.40
2019-01-28T17:10:53.419Z,32.30
2019-01-28T17:13:22.602Z,32.90
2019-01-28T17:15:51.557Z,34.00
2019-01-28T17:18:20.728Z,33.10
2019-01-28T17:20:50.338Z,32.40
2019-01-28T17:23:19.798Z,32.30
2019-01-28T17:25:49.580Z,31.60
2019-01-28T17:28:18.805Z,32.30
2019-01-28T17:30:50.402Z,31.50
2019-01-28T17:33:19.753Z,31.10
2019-01-28T17:35:49.541Z,31.20
2019-01-28T17:38:22.926Z,31.70
2019-01-28T17:40:52.474Z,31.40
2019-01-28T17:43:25.574Z,32.50
2019-01-28T17:45:55.359Z,32.30
2019-01-28T17:48:24.722Z,33.30
2019-01-28T17:50:59.686Z,32.80
2019-01-28T17:53:54.811Z,33.30
2019-01-28T17:56:30.041Z,34.60
2019-01-28T17:59:01.401Z,32.70
2019-01-28T18:01:30.941Z,33.00
2019-01-28T18:04:00.522Z,33.60
2019-01-28T18:06:32.194Z,34.30
2019-01-28T18:09:01.206Z,34.70
2019-01-28T18:11:30.628Z,34.80
2019-01-28T18:13:59.554Z,35.20
2019-01-28T18:16:28.920Z,35.70
2019-01-28T18:18:57.787Z,36.20
2019-01-28T18:21:26.686Z,35.30
2019-01-28T18:23:55.628Z,36.40
2019-01-28T18:26:24.880Z,36.80
2019-01-28T18:28:53.933Z,38.20
2019-01-28T18:31:23.016Z,42.60
2019-01-28T18:33:52.093Z,45.60
2019-01-28T18:36:21.474Z,49.00
2019-01-28T18:38:52.233Z,51.60
2019-01-28T18:41:22.002Z,51.30
2019-01-28T18:43:54.600Z,53.00
2019-01-28T18:46:23.707Z,54.20
2019-01-28T18:48:53.415Z,56.30
2019-01-28T18:51:23.079Z,57.70
2019-01-28T18:53:52.478Z,60.60
2019-01-28T18:56:21.873Z,63.20
2019-01-28T18:58:53.335Z,65.10
2019-01-28T19:01:27.365Z,66.60
2019-01-28T19:03:57.521Z,69.40
2019-01-28T19:06:44.234Z,72.20
2019-01-28T19:09:45.269Z,73.70
2019-01-28T19:12:39.968Z,77.00
2019-01-28T19:15:30.895Z,79.30
2019-01-28T19:18:20.337Z,80.90
2019-01-28T19:20:57.360Z,81.70
2019-01-28T19:23:27.408Z,83.10
2019-01-28T19:25:57.365Z,84.00
2019-01-28T19:28:26.438Z,84.10
2019-01-28T19:30:55.600Z,84.90
2019-01-28T19:33:24.812Z,85.10
2019-01-28T19:35:54.348Z,84.40
2019-01-28T19:38:24.150Z,84.20
2019-01-28T19:40:53.580Z,84.40
2019-01-28T19:43:22.687Z,84.80
2019-01-28T19:45:55.696Z,84.60
2019-01-28T19:48:33.390Z,84.60
2019-01-28T19:52:24.128Z,85.40
2019-01-28T19:54:17.728Z,85.70
2019-01-28T19:56:47.641Z,85.80
2019-01-28T19:59:17.284Z,86.20
2019-01-28T20:01:48.003Z,86.30
2019-01-28T20:04:22.177Z,86.60
2019-01-28T20:06:57.344Z,85.90
2019-01-28T20:09:27.014Z,86.00
2019-01-28T20:11:59.820Z,86.30
2019-01-28T20:14:30.915Z,86.10
2019-01-28T20:17:10.892Z,87.20
2019-01-28T20:19:41.725Z,87.40
2019-01-28T20:22:14.553Z,87.60
2019-01-28T20:24:44.468Z,87.80
2019-01-28T20:27:16.017Z,87.40
2019-01-28T20:29:46.971Z,88.00
2019-01-28T20:32:18.204Z,87.60
2019-01-28T20:34:51.491Z,87.20
2019-01-28T20:37:21.426Z,86.70
2019-01-28T20:39:51.271Z,87.00
2019-01-28T20:42:21.105Z,86.90
2019-01-28T20:44:50.978Z,87.30
2019-01-28T20:47:21.115Z,88.40
2019-01-28T20:49:52.654Z,88.10
2019-01-28T20:52:22.445Z,88.40
2019-01-28T20:54:52.487Z,88.80
2019-01-28T20:57:22.565Z,89.00
2019-01-28T20:59:51.986Z,89.40
2019-01-28T21:02:21.604Z,88.60
2019-01-28T21:04:51.200Z,88.80
2019-01-28T21:07:22.371Z,88.70
2019-01-28T21:09:51.692Z,88.30
2019-01-28T21:12:23.648Z,88.00
2019-01-28T21:14:52.850Z,87.70
2019-01-28T21:17:22.314Z,88.30
2019-01-28T21:19:52.182Z,89.40
2019-01-28T21:22:21.656Z,87.90
2019-01-28T21:24:51.104Z,88.30
2019-01-28T21:27:24.005Z,87.70
2019-01-28T21:29:54.035Z,87.70
2019-01-28T21:32:23.839Z,88.10
2019-01-28T21:34:53.905Z,88.10
2019-01-28T21:37:36.862Z,88.20
2019-01-28T21:40:09.290Z,88.30
2019-01-28T21:42:39.423Z,88.40
2019-01-28T21:45:10.600Z,88.60
2019-01-28T21:47:42.188Z,88.30
2019-01-28T21:50:12.273Z,88.20
2019-01-28T21:52:41.778Z,88.80
2019-01-28T21:55:12.825Z,89.00
2019-01-28T21:57:42.870Z,89.40
2019-01-28T22:00:12.871Z,89.70
2019-01-28T22:02:42.547Z,90.10
2019-01-28T22:05:12.015Z,89.90
2019-01-28T22:07:41.137Z,90.30
2019-01-28T22:10:11.777Z,91.80
2019-01-28T22:12:40.632Z,91.90
2019-01-28T22:15:12.502Z,92.10
2019-01-28T22:17:41.262Z,92.70
2019-01-28T22:20:10.846Z,93.80
2019-01-28T22:22:40.293Z,93.70
2019-01-28T22:25:10.690Z,93.70
2019-01-28T22:27:39.460Z,93.70
2019-01-28T22:30:14.778Z,93.80
2019-01-28T22:32:43.618Z,93.80
2019-01-28T22:35:12.587Z,93.90
2019-01-28T22:37:41.471Z,93.70
2019-01-28T22:40:11.735Z,93.80
2019-01-28T22:42:40.802Z,94.10
2019-01-28T22:45:12.754Z,93.80
2019-01-28T22:47:42.167Z,94.00
2019-01-28T22:50:13.208Z,94.30
2019-01-28T22:52:42.003Z,94.60
2019-01-28T22:55:12.313Z,95.20
2019-01-28T22:57:41.384Z,96.40
2019-01-28T23:00:36.266Z,97.70
2019-01-28T23:03:05.441Z,98.40
2019-01-28T23:05:34.361Z,99.10
2019-01-28T23:08:03.553Z,99.90
2019-01-28T23:10:32.962Z,99.90
2019-01-28T23:13:01.735Z,99.90
2019-01-28T23:15:30.630Z,99.90
2019-01-28T23:17:59.415Z,99.90
2019-01-28T23:20:28.175Z,99.90
2019-01-28T23:22:57.241Z,99.90
2019-01-28T23:25:26.488Z,99.90
2019-01-28T23:27:55.443Z,99.90
2019-01-28T23:30:24.468Z,99.90
2019-01-28T23:32:53.392Z,99.90
2019-01-28T23:35:22.172Z,99.90
2019-01-28T23:37:51.008Z,99.90
2019-01-28T23:40:19.790Z,99.90
2019-01-28T23:42:48.721Z,99.90
2019-01-28T23:45:17.687Z,99.90
2019-01-28T23:47:46.497Z,99.90
2019-01-28T23:50:15.595Z,99.90
2019-01-28T23:52:44.375Z,99.90
2019-01-28T23:55:13.326Z,99.90
2019-01-28T23:57:42.055Z,99.90
